Isabel, Texas
Current Conditions -  °F | °C
As of 9:53 PM on Monday 20 Oct 2014 (Local Time) from KPIL Reporting Station
Clear Clear  
Wind Chill: 79°   Ceiling: Unl
Heat Index: 82°   Visibility: 9mi
Dew Point: 71°   Wind: 7mph
Humidity: 77%   Direction: 60°ENE
Pressure: 29.94"   Gusts: NA
Location:  26.0776°N, 97.3389°W
Report Text: KPIL 210253Z AUTO 06006KT 9SM CLR 26/22 A2994 RMK AO2 SLP138 T02610217 53013
Loading
Personal Weather Stations






























Interactive Weather Map
Tropical Storm Tracking
New forecast layout! Learn more

10-Day Weather Forecast

Advertisements
Track Severe Weather on mobile